sensor_id;sensor_type;location;lat;lon;timestamp;P1;durP1;ratioP1;P2;durP2;ratioP2
1957;SDS011;979;51.076;13.748;2022-08-11T00:01:05;17.33;;;16.47;;
1957;SDS011;979;51.076;13.748;2022-08-11T00:03:42;18.10;;;17.20;;
1957;SDS011;979;51.076;13.748;2022-08-11T00:06:13;16.90;;;16.07;;
1957;SDS011;979;51.076;13.748;2022-08-11T00:08:49;16.87;;;16.03;;
1957;SDS011;979;51.076;13.748;2022-08-11T00:11:20;15.87;;;15.13;;
1957;SDS011;979;51.076;13.748;2022-08-11T00:13:52;15.90;;;15.20;;
1957;SDS011;979;51.076;13.748;2022-08-11T00:16:22;16.83;;;15.80;;
1957;SDS011;979;51.076;13.748;2022-08-11T00:18:54;16.03;;;15.33;;
1957;SDS011;979;51.076;13.748;2022-08-11T00:21:26;15.90;;;15.30;;
1957;SDS011;979;51.076;13.748;2022-08-11T00:24:15;16.93;;;16.13;;
1957;SDS011;979;51.076;13.748;2022-08-11T00:26:46;17.33;;;16.37;;
1957;SDS011;979;51.076;13.748;2022-08-11T00:29:15;16.70;;;15.80;;
1957;SDS011;979;51.076;13.748;2022-08-11T00:31:45;16.20;;;15.47;;
1957;SDS011;979;51.076;13.748;2022-08-11T00:34:21;16.87;;;15.97;;
1957;SDS011;979;51.076;13.748;2022-08-11T00:36:52;17.10;;;16.27;;
1957;SDS011;979;51.076;13.748;2022-08-11T00:39:24;17.40;;;16.50;;
1957;SDS011;979;51.076;13.748;2022-08-11T00:41:59;16.37;;;15.77;;
1957;SDS011;979;51.076;13.748;2022-08-11T00:44:42;17.53;;;16.37;;
1957;SDS011;979;51.076;13.748;2022-08-11T00:47:25;16.40;;;15.60;;
1957;SDS011;979;51.076;13.748;2022-08-11T00:50:12;17.17;;;16.37;;
1957;SDS011;979;51.076;13.748;2022-08-11T00:58:57;17.00;;;16.20;;
1957;SDS011;979;51.076;13.748;2022-08-11T01:02:17;16.67;;;15.60;;
1957;SDS011;979;51.076;13.748;2022-08-11T01:05:07;16.17;;;15.50;;
1957;SDS011;979;51.076;13.748;2022-08-11T01:14:25;16.63;;;15.83;;
1957;SDS011;979;51.076;13.748;2022-08-11T01:20:58;16.40;;;15.57;;
1957;SDS011;979;51.076;13.748;2022-08-11T01:27:01;17.17;;;16.07;;
1957;SDS011;979;51.076;13.748;2022-08-11T01:30:16;16.93;;;16.23;;
1957;SDS011;979;51.076;13.748;2022-08-11T01:33:07;17.03;;;16.20;;
1957;SDS011;979;51.076;13.748;2022-08-11T01:36:32;17.53;;;16.53;;
1957;SDS011;979;51.076;13.748;2022-08-11T01:39:50;16.67;;;15.77;;
1957;SDS011;979;51.076;13.748;2022-08-11T01:46:20;18.40;;;17.07;;
1957;SDS011;979;51.076;13.748;2022-08-11T01:48:56;16.53;;;15.80;;
1957;SDS011;979;51.076;13.748;2022-08-11T01:54:45;16.67;;;15.90;;
1957;SDS011;979;51.076;13.748;2022-08-11T01:57:27;17.20;;;16.13;;
1957;SDS011;979;51.076;13.748;2022-08-11T02:00:07;16.33;;;15.53;;
1957;SDS011;979;51.076;13.748;2022-08-11T02:02:44;16.43;;;15.53;;
1957;SDS011;979;51.076;13.748;2022-08-11T02:05:22;16.87;;;15.90;;
1957;SDS011;979;51.076;13.748;2022-08-11T02:07:58;16.57;;;15.60;;
1957;SDS011;979;51.076;13.748;2022-08-11T02:10:38;16.07;;;15.27;;
1957;SDS011;979;51.076;13.748;2022-08-11T02:13:33;16.37;;;15.67;;
1957;SDS011;979;51.076;13.748;2022-08-11T02:16:10;16.47;;;15.77;;
1957;SDS011;979;51.076;13.748;2022-08-11T02:18:45;16.40;;;15.60;;
1957;SDS011;979;51.076;13.748;2022-08-11T02:21:39;16.10;;;15.30;;
1957;SDS011;979;51.076;13.748;2022-08-11T02:24:33;16.60;;;15.50;;
1957;SDS011;979;51.076;13.748;2022-08-11T02:27:13;16.67;;;15.63;;
1957;SDS011;979;51.076;13.748;2022-08-11T02:29:49;15.97;;;15.27;;
1957;SDS011;979;51.076;13.748;2022-08-11T02:32:32;16.33;;;15.53;;
1957;SDS011;979;51.076;13.748;2022-08-11T02:35:27;16.90;;;16.20;;
1957;SDS011;979;51.076;13.748;2022-08-11T02:38:10;17.03;;;15.97;;
1957;SDS011;979;51.076;13.748;2022-08-11T02:40:46;16.53;;;15.83;;
1957;SDS011;979;51.076;13.748;2022-08-11T02:43:26;16.97;;;16.27;;
1957;SDS011;979;51.076;13.748;2022-08-11T02:46:05;17.17;;;16.40;;
1957;SDS011;979;51.076;13.748;2022-08-11T02:48:49;17.43;;;16.37;;
1957;SDS011;979;51.076;13.748;2022-08-11T02:51:41;16.63;;;15.93;;
1957;SDS011;979;51.076;13.748;2022-08-11T02:54:22;17.57;;;16.67;;
1957;SDS011;979;51.076;13.748;2022-08-11T02:57:00;18.73;;;17.37;;
1957;SDS011;979;51.076;13.748;2022-08-11T02:59:40;17.50;;;16.80;;
1957;SDS011;979;51.076;13.748;2022-08-11T03:02:23;17.40;;;16.30;;
1957;SDS011;979;51.076;13.748;2022-08-11T03:05:26;17.70;;;16.77;;
1957;SDS011;979;51.076;13.748;2022-08-11T03:08:10;17.20;;;16.30;;
1957;SDS011;979;51.076;13.748;2022-08-11T03:10:48;16.87;;;15.97;;
1957;SDS011;979;51.076;13.748;2022-08-11T03:13:48;18.00;;;17.00;;
1957;SDS011;979;51.076;13.748;2022-08-11T03:16:45;18.13;;;17.30;;
1957;SDS011;979;51.076;13.748;2022-08-11T03:19:21;16.70;;;15.97;;
1957;SDS011;979;51.076;13.748;2022-08-11T03:22:02;17.33;;;16.60;;
1957;SDS011;979;51.076;13.748;2022-08-11T03:24:48;16.87;;;16.07;;
1957;SDS011;979;51.076;13.748;2022-08-11T03:27:25;18.60;;;17.70;;
1957;SDS011;979;51.076;13.748;2022-08-11T03:30:06;17.50;;;16.80;;
1957;SDS011;979;51.076;13.748;2022-08-11T03:32:43;19.10;;;17.97;;
1957;SDS011;979;51.076;13.748;2022-08-11T03:35:33;17.70;;;16.63;;
1957;SDS011;979;51.076;13.748;2022-08-11T03:38:07;18.50;;;17.43;;
1957;SDS011;979;51.076;13.748;2022-08-11T03:40:50;17.40;;;16.60;;
1957;SDS011;979;51.076;13.748;2022-08-11T03:44:07;16.77;;;15.97;;
1957;SDS011;979;51.076;13.748;2022-08-11T03:46:58;18.53;;;17.60;;
1957;SDS011;979;51.076;13.748;2022-08-11T03:49:51;17.80;;;16.80;;
1957;SDS011;979;51.076;13.748;2022-08-11T03:52:33;18.60;;;17.17;;
1957;SDS011;979;51.076;13.748;2022-08-11T03:55:13;18.43;;;17.47;;
1957;SDS011;979;51.076;13.748;2022-08-11T04:07:17;17.87;;;16.73;;
1957;SDS011;979;51.076;13.748;2022-08-11T04:16:23;17.67;;;16.50;;
1957;SDS011;979;51.076;13.748;2022-08-11T04:28:41;19.07;;;17.77;;
1957;SDS011;979;51.076;13.748;2022-08-11T04:31:34;18.97;;;17.70;;
1957;SDS011;979;51.076;13.748;2022-08-11T04:37:31;18.90;;;17.70;;
1957;SDS011;979;51.076;13.748;2022-08-11T04:43:35;18.97;;;17.87;;
1957;SDS011;979;51.076;13.748;2022-08-11T04:46:56;19.03;;;17.93;;
1957;SDS011;979;51.076;13.748;2022-08-11T04:50:22;18.67;;;17.30;;
1957;SDS011;979;51.076;13.748;2022-08-11T04:53:41;18.17;;;17.17;;
1957;SDS011;979;51.076;13.748;2022-08-11T04:56:36;19.20;;;17.90;;
1957;SDS011;979;51.076;13.748;2022-08-11T05:03:02;18.90;;;18.07;;
1957;SDS011;979;51.076;13.748;2022-08-11T05:09:22;19.30;;;18.23;;
1957;SDS011;979;51.076;13.748;2022-08-11T05:12:13;19.33;;;18.30;;
1957;SDS011;979;51.076;13.748;2022-08-11T05:14:57;19.80;;;18.70;;
1957;SDS011;979;51.076;13.748;2022-08-11T05:17:48;19.10;;;18.20;;
1957;SDS011;979;51.076;13.748;2022-08-11T05:20:46;18.53;;;17.73;;
1957;SDS011;979;51.076;13.748;2022-08-11T05:23:34;20.40;;;19.20;;
1957;SDS011;979;51.076;13.748;2022-08-11T05:26:27;19.20;;;18.20;;
1957;SDS011;979;51.076;13.748;2022-08-11T05:29:25;20.83;;;19.70;;
1957;SDS011;979;51.076;13.748;2022-08-11T05:32:15;19.33;;;18.53;;
1957;SDS011;979;51.076;13.748;2022-08-11T05:35:02;19.50;;;18.50;;
1957;SDS011;979;51.076;13.748;2022-08-11T05:37:37;20.90;;;19.80;;
1957;SDS011;979;51.076;13.748;2022-08-11T05:40:23;19.20;;;18.30;;
1957;SDS011;979;51.076;13.748;2022-08-11T05:43:20;20.17;;;18.77;;
1957;SDS011;979;51.076;13.748;2022-08-11T05:46:30;19.80;;;18.73;;
1957;SDS011;979;51.076;13.748;2022-08-11T05:49:23;19.07;;;18.17;;
1957;SDS011;979;51.076;13.748;2022-08-11T05:52:15;19.83;;;18.63;;
1957;SDS011;979;51.076;13.748;2022-08-11T05:55:07;19.13;;;18.13;;
1957;SDS011;979;51.076;13.748;2022-08-11T05:57:55;19.50;;;18.60;;
1957;SDS011;979;51.076;13.748;2022-08-11T06:00:27;19.90;;;18.57;;
1957;SDS011;979;51.076;13.748;2022-08-11T06:02:56;19.13;;;18.17;;
1957;SDS011;979;51.076;13.748;2022-08-11T06:05:31;18.30;;;16.93;;
1957;SDS011;979;51.076;13.748;2022-08-11T06:08:09;21.00;;;19.90;;
1957;SDS011;979;51.076;13.748;2022-08-11T06:10:39;20.37;;;19.40;;
1957;SDS011;979;51.076;13.748;2022-08-11T06:13:13;19.77;;;18.80;;
1957;SDS011;979;51.076;13.748;2022-08-11T06:15:45;19.83;;;18.83;;
1957;SDS011;979;51.076;13.748;2022-08-11T06:18:14;19.93;;;19.03;;
1957;SDS011;979;51.076;13.748;2022-08-11T06:20:44;19.87;;;18.80;;
1957;SDS011;979;51.076;13.748;2022-08-11T06:23:15;19.30;;;18.27;;
1957;SDS011;979;51.076;13.748;2022-08-11T06:25:44;20.57;;;19.23;;
1957;SDS011;979;51.076;13.748;2022-08-11T06:28:14;19.07;;;18.17;;
1957;SDS011;979;51.076;13.748;2022-08-11T06:30:48;18.63;;;17.50;;
1957;SDS011;979;51.076;13.748;2022-08-11T06:33:19;20.30;;;19.20;;
1957;SDS011;979;51.076;13.748;2022-08-11T06:35:59;19.83;;;18.40;;
1957;SDS011;979;51.076;13.748;2022-08-11T06:38:39;18.70;;;17.80;;
1957;SDS011;979;51.076;13.748;2022-08-11T06:41:20;19.23;;;18.23;;
1957;SDS011;979;51.076;13.748;2022-08-11T06:44:07;18.20;;;17.30;;
1957;SDS011;979;51.076;13.748;2022-08-11T06:46:46;19.37;;;18.23;;
1957;SDS011;979;51.076;13.748;2022-08-11T06:49:17;19.27;;;18.10;;
1957;SDS011;979;51.076;13.748;2022-08-11T06:52:09;18.70;;;17.73;;
1957;SDS011;979;51.076;13.748;2022-08-11T06:55:04;19.43;;;18.20;;
1957;SDS011;979;51.076;13.748;2022-08-11T06:57:55;18.60;;;17.70;;
1957;SDS011;979;51.076;13.748;2022-08-11T07:00:41;17.90;;;17.10;;
1957;SDS011;979;51.076;13.748;2022-08-11T07:03:14;18.80;;;17.50;;
1957;SDS011;979;51.076;13.748;2022-08-11T07:05:48;18.10;;;17.20;;
1957;SDS011;979;51.076;13.748;2022-08-11T07:12:10;18.97;;;18.07;;
1957;SDS011;979;51.076;13.748;2022-08-11T07:15:28;18.23;;;17.33;;
1957;SDS011;979;51.076;13.748;2022-08-11T07:18:32;18.10;;;17.00;;
1957;SDS011;979;51.076;13.748;2022-08-11T07:21:21;18.60;;;17.60;;
1957;SDS011;979;51.076;13.748;2022-08-11T07:24:30;18.37;;;17.57;;
1957;SDS011;979;51.076;13.748;2022-08-11T07:27:30;19.03;;;18.00;;
1957;SDS011;979;51.076;13.748;2022-08-11T07:30:21;18.20;;;17.40;;
1957;SDS011;979;51.076;13.748;2022-08-11T07:32:52;18.60;;;17.50;;
1957;SDS011;979;51.076;13.748;2022-08-11T07:35:26;18.60;;;17.60;;
1957;SDS011;979;51.076;13.748;2022-08-11T07:38:00;18.40;;;17.40;;
1957;SDS011;979;51.076;13.748;2022-08-11T07:40:35;18.30;;;17.40;;
1957;SDS011;979;51.076;13.748;2022-08-11T07:43:04;18.00;;;17.10;;
1957;SDS011;979;51.076;13.748;2022-08-11T07:45:33;16.80;;;16.30;;
1957;SDS011;979;51.076;13.748;2022-08-11T07:48:21;16.40;;;15.70;;
1957;SDS011;979;51.076;13.748;2022-08-11T07:51:08;17.87;;;16.70;;
1957;SDS011;979;51.076;13.748;2022-08-11T07:53:54;17.83;;;16.93;;
1957;SDS011;979;51.076;13.748;2022-08-11T07:56:42;18.60;;;17.80;;
1957;SDS011;979;51.076;13.748;2022-08-11T07:59:31;16.73;;;15.80;;
1957;SDS011;979;51.076;13.748;2022-08-11T08:02:37;17.00;;;16.10;;
1957;SDS011;979;51.076;13.748;2022-08-11T08:05:23;18.03;;;17.07;;
1957;SDS011;979;51.076;13.748;2022-08-11T08:08:12;18.10;;;17.10;;
1957;SDS011;979;51.076;13.748;2022-08-11T08:10:59;17.27;;;16.40;;
1957;SDS011;979;51.076;13.748;2022-08-11T08:13:53;17.40;;;16.60;;
1957;SDS011;979;51.076;13.748;2022-08-11T08:16:39;17.47;;;16.43;;
1957;SDS011;979;51.076;13.748;2022-08-11T08:19:26;17.40;;;16.60;;
1957;SDS011;979;51.076;13.748;2022-08-11T08:21:55;18.50;;;17.60;;
1957;SDS011;979;51.076;13.748;2022-08-11T08:28:13;15.03;;;14.33;;
1957;SDS011;979;51.076;13.748;2022-08-11T08:30:43;15.57;;;14.87;;
1957;SDS011;979;51.076;13.748;2022-08-11T08:33:17;15.50;;;14.90;;
1957;SDS011;979;51.076;13.748;2022-08-11T08:35:48;16.10;;;15.50;;
1957;SDS011;979;51.076;13.748;2022-08-11T08:38:38;16.07;;;15.40;;
1957;SDS011;979;51.076;13.748;2022-08-11T08:41:07;16.53;;;15.67;;
1957;SDS011;979;51.076;13.748;2022-08-11T08:43:43;17.00;;;16.10;;
1957;SDS011;979;51.076;13.748;2022-08-11T08:46:15;16.67;;;15.77;;
1957;SDS011;979;51.076;13.748;2022-08-11T08:48:48;16.80;;;16.07;;
1957;SDS011;979;51.076;13.748;2022-08-11T08:51:19;17.20;;;16.53;;
1957;SDS011;979;51.076;13.748;2022-08-11T08:54:21;16.10;;;15.50;;
1957;SDS011;979;51.076;13.748;2022-08-11T08:56:53;16.50;;;15.90;;
1957;SDS011;979;51.076;13.748;2022-08-11T08:59:25;16.33;;;15.60;;
1957;SDS011;979;51.076;13.748;2022-08-11T09:02:16;15.80;;;15.20;;
1957;SDS011;979;51.076;13.748;2022-08-11T09:05:08;16.63;;;16.03;;
1957;SDS011;979;51.076;13.748;2022-08-11T09:07:37;16.40;;;15.80;;
1957;SDS011;979;51.076;13.748;2022-08-11T09:10:08;16.50;;;15.93;;
1957;SDS011;979;51.076;13.748;2022-08-11T09:12:38;14.77;;;14.17;;
1957;SDS011;979;51.076;13.748;2022-08-11T09:15:11;16.60;;;15.80;;
1957;SDS011;979;51.076;13.748;2022-08-11T09:17:46;17.10;;;16.30;;
1957;SDS011;979;51.076;13.748;2022-08-11T09:20:17;17.00;;;16.20;;
1957;SDS011;979;51.076;13.748;2022-08-11T09:22:48;15.93;;;15.33;;
1957;SDS011;979;51.076;13.748;2022-08-11T09:25:55;16.40;;;15.80;;
1957;SDS011;979;51.076;13.748;2022-08-11T09:28:44;15.80;;;15.10;;
1957;SDS011;979;51.076;13.748;2022-08-11T09:31:18;16.43;;;15.83;;
1957;SDS011;979;51.076;13.748;2022-08-11T09:33:50;16.50;;;15.80;;
1957;SDS011;979;51.076;13.748;2022-08-11T09:36:20;17.37;;;16.47;;
1957;SDS011;979;51.076;13.748;2022-08-11T09:39:07;17.13;;;16.43;;
1957;SDS011;979;51.076;13.748;2022-08-11T09:41:56;15.67;;;15.07;;
1957;SDS011;979;51.076;13.748;2022-08-11T09:44:30;15.97;;;15.13;;
1957;SDS011;979;51.076;13.748;2022-08-11T09:47:21;16.03;;;15.43;;
1957;SDS011;979;51.076;13.748;2022-08-11T09:49:52;17.17;;;16.57;;
1957;SDS011;979;51.076;13.748;2022-08-11T09:52:26;16.30;;;15.40;;
1957;SDS011;979;51.076;13.748;2022-08-11T09:54:58;16.87;;;15.93;;
1957;SDS011;979;51.076;13.748;2022-08-11T09:57:37;16.63;;;15.70;;
1957;SDS011;979;51.076;13.748;2022-08-11T10:00:27;15.97;;;15.30;;
1957;SDS011;979;51.076;13.748;2022-08-11T10:02:57;14.43;;;13.93;;
1957;SDS011;979;51.076;13.748;2022-08-11T10:05:28;16.23;;;15.60;;
1957;SDS011;979;51.076;13.748;2022-08-11T10:08:15;15.40;;;14.57;;
1957;SDS011;979;51.076;13.748;2022-08-11T10:10:46;16.00;;;15.50;;
1957;SDS011;979;51.076;13.748;2022-08-11T10:13:17;14.27;;;13.87;;
1957;SDS011;979;51.076;13.748;2022-08-11T10:16:12;14.20;;;13.70;;
1957;SDS011;979;51.076;13.748;2022-08-11T10:18:46;14.57;;;14.00;;
1957;SDS011;979;51.076;13.748;2022-08-11T10:21:26;14.83;;;14.27;;
1957;SDS011;979;51.076;13.748;2022-08-11T10:23:57;15.57;;;14.70;;
1957;SDS011;979;51.076;13.748;2022-08-11T10:27:39;16.43;;;15.27;;
1957;SDS011;979;51.076;13.748;2022-08-11T10:30:30;15.83;;;15.00;;
1957;SDS011;979;51.076;13.748;2022-08-11T10:33:16;14.60;;;14.00;;
1957;SDS011;979;51.076;13.748;2022-08-11T10:36:24;14.67;;;14.07;;
1957;SDS011;979;51.076;13.748;2022-08-11T10:38:54;15.23;;;14.63;;
1957;SDS011;979;51.076;13.748;2022-08-11T10:41:23;14.53;;;14.03;;
1957;SDS011;979;51.076;13.748;2022-08-11T10:44:30;14.10;;;13.70;;
1957;SDS011;979;51.076;13.748;2022-08-11T10:47:03;16.30;;;15.03;;
1957;SDS011;979;51.076;13.748;2022-08-11T10:49:52;15.13;;;14.53;;
1957;SDS011;979;51.076;13.748;2022-08-11T10:52:38;14.63;;;13.93;;
1957;SDS011;979;51.076;13.748;2022-08-11T10:55:24;15.30;;;14.60;;
1957;SDS011;979;51.076;13.748;2022-08-11T10:58:11;14.80;;;14.20;;
1957;SDS011;979;51.076;13.748;2022-08-11T11:00:58;14.83;;;14.33;;
1957;SDS011;979;51.076;13.748;2022-08-11T11:03:28;15.27;;;14.60;;
1957;SDS011;979;51.076;13.748;2022-08-11T11:06:02;15.30;;;14.60;;
1957;SDS011;979;51.076;13.748;2022-08-11T11:08:58;15.30;;;14.50;;
1957;SDS011;979;51.076;13.748;2022-08-11T11:11:32;15.50;;;14.90;;
1957;SDS011;979;51.076;13.748;2022-08-11T11:14:20;15.13;;;14.50;;
1957;SDS011;979;51.076;13.748;2022-08-11T11:17:12;16.00;;;14.90;;
1957;SDS011;979;51.076;13.748;2022-08-11T11:20:03;15.13;;;14.53;;
1957;SDS011;979;51.076;13.748;2022-08-11T11:22:55;15.30;;;14.70;;
1957;SDS011;979;51.076;13.748;2022-08-11T11:31:51;14.80;;;14.30;;
1957;SDS011;979;51.076;13.748;2022-08-11T11:34:37;15.27;;;14.60;;
1957;SDS011;979;51.076;13.748;2022-08-11T11:37:19;15.13;;;14.63;;
1957;SDS011;979;51.076;13.748;2022-08-11T11:39:50;14.60;;;14.10;;
1957;SDS011;979;51.076;13.748;2022-08-11T11:42:22;15.33;;;14.53;;
1957;SDS011;979;51.076;13.748;2022-08-11T11:44:51;15.50;;;14.90;;
1957;SDS011;979;51.076;13.748;2022-08-11T11:47:22;14.83;;;14.33;;
1957;SDS011;979;51.076;13.748;2022-08-11T11:49:51;14.87;;;14.10;;
1957;SDS011;979;51.076;13.748;2022-08-11T11:52:24;14.67;;;14.00;;
1957;SDS011;979;51.076;13.748;2022-08-11T11:54:54;14.53;;;14.03;;
1957;SDS011;979;51.076;13.748;2022-08-11T11:57:25;15.20;;;14.20;;
1957;SDS011;979;51.076;13.748;2022-08-11T12:00:28;13.77;;;13.27;;
1957;SDS011;979;51.076;13.748;2022-08-11T12:03:14;14.50;;;13.77;;
1957;SDS011;979;51.076;13.748;2022-08-11T12:05:44;13.80;;;13.40;;
1957;SDS011;979;51.076;13.748;2022-08-11T12:08:13;14.73;;;14.23;;
1957;SDS011;979;51.076;13.748;2022-08-11T12:10:45;14.30;;;13.90;;
1957;SDS011;979;51.076;13.748;2022-08-11T12:13:17;14.80;;;14.30;;
1957;SDS011;979;51.076;13.748;2022-08-11T12:16:03;14.50;;;14.00;;
1957;SDS011;979;51.076;13.748;2022-08-11T12:18:53;14.60;;;14.10;;
1957;SDS011;979;51.076;13.748;2022-08-11T12:21:23;14.00;;;13.60;;
1957;SDS011;979;51.076;13.748;2022-08-11T12:23:54;14.10;;;13.70;;
1957;SDS011;979;51.076;13.748;2022-08-11T12:26:41;14.60;;;14.00;;
1957;SDS011;979;51.076;13.748;2022-08-11T12:29:43;14.37;;;13.87;;
1957;SDS011;979;51.076;13.748;2022-08-11T12:32:21;13.60;;;13.20;;
1957;SDS011;979;51.076;13.748;2022-08-11T12:34:52;13.37;;;13.07;;
1957;SDS011;979;51.076;13.748;2022-08-11T12:37:23;13.63;;;13.23;;
1957;SDS011;979;51.076;13.748;2022-08-11T12:39:57;14.17;;;13.23;;
1957;SDS011;979;51.076;13.748;2022-08-11T12:43:06;14.17;;;13.37;;
1957;SDS011;979;51.076;13.748;2022-08-11T12:46:06;13.20;;;12.90;;
1957;SDS011;979;51.076;13.748;2022-08-11T12:48:40;12.83;;;12.53;;
1957;SDS011;979;51.076;13.748;2022-08-11T12:51:33;12.70;;;12.40;;
1957;SDS011;979;51.076;13.748;2022-08-11T12:54:44;11.93;;;11.63;;
1957;SDS011;979;51.076;13.748;2022-08-11T12:57:25;14.50;;;14.00;;
1957;SDS011;979;51.076;13.748;2022-08-11T13:00:15;13.40;;;13.10;;
1957;SDS011;979;51.076;13.748;2022-08-11T13:03:02;13.57;;;13.13;;
1957;SDS011;979;51.076;13.748;2022-08-11T13:05:51;14.37;;;13.87;;
1957;SDS011;979;51.076;13.748;2022-08-11T13:08:21;14.10;;;13.70;;
1957;SDS011;979;51.076;13.748;2022-08-11T13:10:52;13.37;;;12.87;;
1957;SDS011;979;51.076;13.748;2022-08-11T13:13:40;12.93;;;12.63;;
1957;SDS011;979;51.076;13.748;2022-08-11T13:16:22;13.80;;;13.40;;
1957;SDS011;979;51.076;13.748;2022-08-11T13:18:54;13.20;;;12.80;;
1957;SDS011;979;51.076;13.748;2022-08-11T13:21:24;13.60;;;13.20;;
1957;SDS011;979;51.076;13.748;2022-08-11T13:23:54;13.93;;;13.33;;
1957;SDS011;979;51.076;13.748;2022-08-11T13:26:31;13.70;;;13.30;;
1957;SDS011;979;51.076;13.748;2022-08-11T13:29:18;13.70;;;13.20;;
1957;SDS011;979;51.076;13.748;2022-08-11T13:31:50;13.20;;;12.90;;
1957;SDS011;979;51.076;13.748;2022-08-11T13:34:23;13.07;;;12.73;;
1957;SDS011;979;51.076;13.748;2022-08-11T13:37:00;13.68;;;13.20;;
1957;SDS011;979;51.076;13.748;2022-08-11T13:39:32;12.97;;;12.40;;
1957;SDS011;979;51.076;13.748;2022-08-11T13:42:02;13.70;;;13.30;;
1957;SDS011;979;51.076;13.748;2022-08-11T13:44:32;13.53;;;13.13;;
1957;SDS011;979;51.076;13.748;2022-08-11T13:47:03;12.90;;;12.60;;
1957;SDS011;979;51.076;13.748;2022-08-11T13:49:35;13.93;;;13.43;;
1957;SDS011;979;51.076;13.748;2022-08-11T13:52:08;14.07;;;13.67;;
1957;SDS011;979;51.076;13.748;2022-08-11T13:54:39;12.67;;;12.13;;
1957;SDS011;979;51.076;13.748;2022-08-11T13:57:11;13.07;;;12.67;;
1957;SDS011;979;51.076;13.748;2022-08-11T14:00:05;13.10;;;12.80;;
1957;SDS011;979;51.076;13.748;2022-08-11T14:02:54;12.90;;;12.50;;
1957;SDS011;979;51.076;13.748;2022-08-11T14:08:56;14.10;;;13.70;;
1957;SDS011;979;51.076;13.748;2022-08-11T14:11:25;13.00;;;12.60;;
1957;SDS011;979;51.076;13.748;2022-08-11T14:14:35;13.57;;;12.97;;
1957;SDS011;979;51.076;13.748;2022-08-11T14:17:04;13.93;;;13.43;;
1957;SDS011;979;51.076;13.748;2022-08-11T14:19:34;14.50;;;13.77;;
1957;SDS011;979;51.076;13.748;2022-08-11T14:22:06;14.47;;;13.93;;
1957;SDS011;979;51.076;13.748;2022-08-11T14:24:38;13.90;;;13.50;;
1957;SDS011;979;51.076;13.748;2022-08-11T14:27:09;14.17;;;13.40;;
1957;SDS011;979;51.076;13.748;2022-08-11T14:29:59;13.00;;;12.70;;
1957;SDS011;979;51.076;13.748;2022-08-11T14:32:28;13.67;;;13.17;;
1957;SDS011;979;51.076;13.748;2022-08-11T14:34:59;13.37;;;12.90;;
1957;SDS011;979;51.076;13.748;2022-08-11T14:37:32;13.23;;;12.83;;
1957;SDS011;979;51.076;13.748;2022-08-11T14:40:02;14.20;;;13.70;;
1957;SDS011;979;51.076;13.748;2022-08-11T14:42:58;14.40;;;13.57;;
1957;SDS011;979;51.076;13.748;2022-08-11T14:46:04;14.18;;;13.88;;
1957;SDS011;979;51.076;13.748;2022-08-11T14:48:50;14.30;;;13.75;;
1957;SDS011;979;51.076;13.748;2022-08-11T14:51:22;13.93;;;13.40;;
1957;SDS011;979;51.076;13.748;2022-08-11T14:53:50;14.23;;;13.73;;
1957;SDS011;979;51.076;13.748;2022-08-11T14:56:42;14.50;;;13.93;;
1957;SDS011;979;51.076;13.748;2022-08-11T14:59:10;13.47;;;13.07;;
1957;SDS011;979;51.076;13.748;2022-08-11T15:01:39;13.70;;;13.30;;
1957;SDS011;979;51.076;13.748;2022-08-11T15:04:31;13.60;;;13.20;;
1957;SDS011;979;51.076;13.748;2022-08-11T15:07:02;14.20;;;13.80;;
1957;SDS011;979;51.076;13.748;2022-08-11T15:09:42;14.53;;;14.03;;
1957;SDS011;979;51.076;13.748;2022-08-11T15:12:33;13.60;;;13.20;;
1957;SDS011;979;51.076;13.748;2022-08-11T15:15:04;14.93;;;14.40;;
1957;SDS011;979;51.076;13.748;2022-08-11T15:17:52;13.67;;;13.17;;
1957;SDS011;979;51.076;13.748;2022-08-11T15:20:21;14.13;;;13.70;;
1957;SDS011;979;51.076;13.748;2022-08-11T15:23:08;14.10;;;13.60;;
1957;SDS011;979;51.076;13.748;2022-08-11T15:25:55;14.20;;;13.80;;
1957;SDS011;979;51.076;13.748;2022-08-11T15:28:27;14.77;;;13.77;;
1957;SDS011;979;51.076;13.748;2022-08-11T15:31:18;13.40;;;13.07;;
1957;SDS011;979;51.076;13.748;2022-08-11T15:34:24;13.33;;;12.93;;
1957;SDS011;979;51.076;13.748;2022-08-11T15:37:19;13.70;;;13.30;;
1957;SDS011;979;51.076;13.748;2022-08-11T15:40:05;13.57;;;12.90;;
1957;SDS011;979;51.076;13.748;2022-08-11T15:42:59;14.03;;;13.70;;
1957;SDS011;979;51.076;13.748;2022-08-11T15:45:59;13.97;;;13.27;;
1957;SDS011;979;51.076;13.748;2022-08-11T15:48:38;13.40;;;12.80;;
1957;SDS011;979;51.076;13.748;2022-08-11T15:51:15;13.57;;;12.97;;
1957;SDS011;979;51.076;13.748;2022-08-11T15:53:51;13.03;;;12.63;;
1957;SDS011;979;51.076;13.748;2022-08-11T15:56:23;12.90;;;12.60;;
1957;SDS011;979;51.076;13.748;2022-08-11T15:58:56;13.40;;;13.10;;
1957;SDS011;979;51.076;13.748;2022-08-11T16:02:10;12.67;;;12.17;;
1957;SDS011;979;51.076;13.748;2022-08-11T16:04:58;14.13;;;13.40;;
1957;SDS011;979;51.076;13.748;2022-08-11T16:07:32;14.43;;;14.00;;
1957;SDS011;979;51.076;13.748;2022-08-11T16:10:06;14.17;;;13.43;;
1957;SDS011;979;51.076;13.748;2022-08-11T16:12:44;14.03;;;13.57;;
1957;SDS011;979;51.076;13.748;2022-08-11T16:15:47;12.93;;;12.57;;
1957;SDS011;979;51.076;13.748;2022-08-11T16:18:40;13.13;;;12.60;;
1957;SDS011;979;51.076;13.748;2022-08-11T16:21:18;13.47;;;13.07;;
1957;SDS011;979;51.076;13.748;2022-08-11T16:24:02;13.43;;;13.03;;
1957;SDS011;979;51.076;13.748;2022-08-11T16:26:33;13.87;;;13.37;;
1957;SDS011;979;51.076;13.748;2022-08-11T16:29:24;13.77;;;13.37;;
1957;SDS011;979;51.076;13.748;2022-08-11T16:31:57;13.60;;;13.10;;
1957;SDS011;979;51.076;13.748;2022-08-11T16:34:49;13.90;;;13.40;;
1957;SDS011;979;51.076;13.748;2022-08-11T16:37:38;14.50;;;14.00;;
1957;SDS011;979;51.076;13.748;2022-08-11T16:40:25;14.40;;;13.80;;
1957;SDS011;979;51.076;13.748;2022-08-11T16:42:54;14.43;;;14.03;;
1957;SDS011;979;51.076;13.748;2022-08-11T16:45:41;14.40;;;13.90;;
1957;SDS011;979;51.076;13.748;2022-08-11T16:48:33;15.50;;;14.80;;
1957;SDS011;979;51.076;13.748;2022-08-11T16:51:06;17.13;;;16.27;;
1957;SDS011;979;51.076;13.748;2022-08-11T16:53:34;14.50;;;14.10;;
1957;SDS011;979;51.076;13.748;2022-08-11T16:56:26;14.97;;;14.57;;
1957;SDS011;979;51.076;13.748;2022-08-11T16:58:56;15.40;;;14.80;;
1957;SDS011;979;51.076;13.748;2022-08-11T17:01:42;15.33;;;14.27;;
1957;SDS011;979;51.076;13.748;2022-08-11T17:04:20;14.23;;;13.73;;
1957;SDS011;979;51.076;13.748;2022-08-11T17:07:19;14.27;;;13.87;;
1957;SDS011;979;51.076;13.748;2022-08-11T17:10:12;15.13;;;14.10;;
1957;SDS011;979;51.076;13.748;2022-08-11T17:13:28;13.83;;;13.27;;
1957;SDS011;979;51.076;13.748;2022-08-11T17:16:02;13.93;;;13.50;;
1957;SDS011;979;51.076;13.748;2022-08-11T17:18:40;14.03;;;13.53;;
1957;SDS011;979;51.076;13.748;2022-08-11T17:21:14;14.10;;;13.70;;
1957;SDS011;979;51.076;13.748;2022-08-11T17:23:48;14.70;;;14.10;;
1957;SDS011;979;51.076;13.748;2022-08-11T17:26:27;14.40;;;13.97;;
1957;SDS011;979;51.076;13.748;2022-08-11T17:29:12;14.83;;;14.10;;
1957;SDS011;979;51.076;13.748;2022-08-11T17:31:42;14.70;;;14.10;;
1957;SDS011;979;51.076;13.748;2022-08-11T17:34:30;14.20;;;13.43;;
1957;SDS011;979;51.076;13.748;2022-08-11T17:37:17;13.80;;;13.00;;
1957;SDS011;979;51.076;13.748;2022-08-11T17:39:51;13.60;;;13.10;;
1957;SDS011;979;51.076;13.748;2022-08-11T17:42:23;13.97;;;13.57;;